createdAt,value
2023-04-15T00:00:32.529Z,330.88
2023-04-15T00:01:32.559Z,331.55
2023-04-15T00:02:32.612Z,331.88
2023-04-15T00:03:32.669Z,331.21
2023-04-15T00:04:32.573Z,331.55
2023-04-15T00:05:33.135Z,331.21
2023-04-15T00:06:32.480Z,331.21
2023-04-15T00:07:32.414Z,333.23
2023-04-15T00:08:33.157Z,332.22
2023-04-15T00:09:32.430Z,332.89
2023-04-15T00:10:32.409Z,335.96
2023-04-15T00:11:32.414Z,334.93
2023-04-15T00:12:33.076Z,336.30
2023-04-15T00:13:32.357Z,336.65
2023-04-15T00:14:33.092Z,335.96
2023-04-15T00:15:32.375Z,337.00
2023-04-15T00:16:32.377Z,336.65
2023-04-15T00:17:32.321Z,336.30
2023-04-15T00:18:32.333Z,339.44
2023-04-15T00:19:33.020Z,342.27
2023-04-15T00:20:32.289Z,341.20
2023-04-15T00:21:32.274Z,340.85
2023-04-15T00:22:32.923Z,340.85
2023-04-15T00:23:31.972Z,342.63
2023-04-15T00:24:32.008Z,341.20
2023-04-15T00:25:31.972Z,342.63
2023-04-15T00:26:32.194Z,343.34
2023-04-15T00:27:32.220Z,342.63
2023-04-15T00:28:32.166Z,344.42
2023-04-15T00:29:32.152Z,342.98
2023-04-15T00:30:32.213Z,345.51
2023-04-15T00:31:32.142Z,344.42
2023-04-15T00:32:32.115Z,344.42
2023-04-15T00:33:32.121Z,344.06
2023-04-15T00:34:32.110Z,342.98
2023-04-15T00:35:32.301Z,344.79
2023-04-15T00:36:32.808Z,347.71
2023-04-15T00:37:32.709Z,347.34
2023-04-15T00:38:32.002Z,344.79
2023-04-15T00:39:32.017Z,345.88
2023-04-15T00:40:32.020Z,348.08
2023-04-15T00:41:31.990Z,348.08
2023-04-15T00:42:32.717Z,349.93
2023-04-15T00:43:32.696Z,346.61
2023-04-15T00:44:32.672Z,349.93
2023-04-15T00:45:32.675Z,347.34
2023-04-15T00:46:32.654Z,350.68
2023-04-15T00:47:31.925Z,352.19
2023-04-15T00:48:31.876Z,347.71
2023-04-15T00:49:31.882Z,351.06
2023-04-15T00:50:31.935Z,351.06
2023-04-15T00:51:31.899Z,350.31
2023-04-15T00:52:31.900Z,354.47
2023-04-15T00:53:31.832Z,354.47
2023-04-15T00:54:31.853Z,354.47
2023-04-15T00:55:32.478Z,354.47
2023-04-15T00:56:31.795Z,357.17
2023-04-15T00:57:31.799Z,358.34
2023-04-15T00:58:31.740Z,356.01
2023-04-15T00:59:31.995Z,355.62
2023-04-15T01:00:31.755Z,354.85
2023-04-15T01:01:31.774Z,356.40
2023-04-15T01:02:32.073Z,356.40
2023-04-15T01:03:31.859Z,357.17
2023-04-15T01:04:31.799Z,359.13
2023-04-15T01:05:31.678Z,359.52
2023-04-15T01:06:31.666Z,355.62
2023-04-15T01:07:31.656Z,357.17
2023-04-15T01:08:31.625Z,357.56
2023-04-15T01:09:31.627Z,358.34
2023-04-15T01:10:31.622Z,358.73
2023-04-15T01:11:31.592Z,358.73
2023-04-15T01:12:31.576Z,359.13
2023-04-15T01:13:31.844Z,360.31
2023-04-15T01:14:31.562Z,360.70
2023-04-15T01:15:31.537Z,361.10
2023-04-15T01:16:31.737Z,361.90
2023-04-15T01:17:31.547Z,362.30
2023-04-15T01:18:31.484Z,363.10
2023-04-15T01:19:31.512Z,362.30
2023-04-15T01:20:31.701Z,363.10
2023-04-15T01:21:31.452Z,362.30
2023-04-15T01:22:31.472Z,363.10
2023-04-15T01:23:31.663Z,362.70
2023-04-15T01:24:31.183Z,362.30
2023-04-15T01:25:31.168Z,363.91
2023-04-15T01:26:31.172Z,363.50
2023-04-15T01:27:31.139Z,364.71
2023-04-15T01:28:31.381Z,364.71
2023-04-15T01:29:31.142Z,363.91
2023-04-15T01:30:31.111Z,366.34
2023-04-15T01:31:31.423Z,366.34
2023-04-15T01:32:31.345Z,366.34
2023-04-15T01:33:31.138Z,365.93
2023-04-15T01:34:32.111Z,367.99
2023-04-15T01:35:31.144Z,368.81
2023-04-15T01:36:30.593Z,368.81
2023-04-15T01:37:31.260Z,369.64
2023-04-15T01:38:31.241Z,370.48
2023-04-15T01:39:31.210Z,373.43
2023-04-15T01:40:31.214Z,371.74
2023-04-15T01:41:31.220Z,374.28
2023-04-15T01:42:31.188Z,373.86
2023-04-15T01:43:31.227Z,375.14
2023-04-15T01:44:31.186Z,373.43
2023-04-15T01:45:31.209Z,375.57
2023-04-15T01:46:31.183Z,375.14
2023-04-15T01:47:31.176Z,377.30
2023-04-15T01:48:31.113Z,378.17
2023-04-15T01:49:31.073Z,380.61
2023-04-15T01:50:31.111Z,381.05
2023-04-15T01:51:31.083Z,380.61
2023-04-15T01:52:31.086Z,382.14
2023-04-15T01:53:31.083Z,380.83
2023-04-15T01:54:30.817Z,381.92
2023-04-15T01:55:31.032Z,381.48
2023-04-15T01:56:31.029Z,383.46
2023-04-15T01:57:30.998Z,382.58
2023-04-15T01:58:30.976Z,384.34
2023-04-15T01:59:31.710Z,384.79
2023-04-15T02:00:30.980Z,386.79
2023-04-15T02:01:30.996Z,388.14
2023-04-15T02:02:31.123Z,388.14
2023-04-15T02:03:31.030Z,388.82
2023-04-15T02:04:30.894Z,388.14
2023-04-15T02:05:30.912Z,387.47
2023-04-15T02:06:30.886Z,389.73
2023-04-15T02:07:30.861Z,391.79
2023-04-15T02:08:30.855Z,389.73
2023-04-15T02:09:30.834Z,391.79
2023-04-15T02:10:30.834Z,389.51
2023-04-15T02:11:30.846Z,391.79
2023-04-15T02:12:30.800Z,392.26
2023-04-15T02:13:30.796Z,395.51
2023-04-15T02:14:30.751Z,393.64
2023-04-15T02:15:30.803Z,395.28
2023-04-15T02:16:30.823Z,398.35
2023-04-15T02:17:30.782Z,394.81
2023-04-15T02:18:30.739Z,398.11
2023-04-15T02:19:30.702Z,398.58
2023-04-15T02:20:30.954Z,399.30
2023-04-15T02:21:30.744Z,400.74
2023-04-15T02:22:30.698Z,401.95
2023-04-15T02:23:30.667Z,401.22
2023-04-15T02:24:30.644Z,401.95
2023-04-15T02:25:30.679Z,402.19
2023-04-15T02:26:30.632Z,402.92
2023-04-15T02:27:30.626Z,402.68
2023-04-15T02:28:30.596Z,399.54
2023-04-15T02:29:30.559Z,401.71
2023-04-15T02:30:30.589Z,402.68
2023-04-15T02:31:30.616Z,400.74
2023-04-15T02:32:30.575Z,402.19
2023-04-15T02:33:30.546Z,403.16
2023-04-15T02:34:30.511Z,402.68
2023-04-15T02:35:30.521Z,402.92
2023-04-15T02:36:30.484Z,404.39
2023-04-15T02:37:30.487Z,403.65
2023-04-15T02:38:31.140Z,403.41
2023-04-15T02:39:30.444Z,405.12
2023-04-15T02:40:30.432Z,408.60
2023-04-15T02:41:30.454Z,409.35
2023-04-15T02:42:30.419Z,408.10
2023-04-15T02:43:30.403Z,411.62
2023-04-15T02:44:30.422Z,412.64
2023-04-15T02:45:30.387Z,413.41
2023-04-15T02:46:30.383Z,413.16
2023-04-15T02:47:30.434Z,413.92
2023-04-15T02:48:30.104Z,413.16
2023-04-15T02:49:30.293Z,412.64
2023-04-15T02:50:30.314Z,412.64
2023-04-15T02:51:30.336Z,411.62
2023-04-15T02:52:30.121Z,416.77
2023-04-15T02:53:30.270Z,413.67
2023-04-15T02:54:30.239Z,413.92
2023-04-15T02:55:30.252Z,415.47
2023-04-15T02:56:30.261Z,418.08
2023-04-15T02:57:30.266Z,414.70
2023-04-15T02:58:30.456Z,419.66
2023-04-15T02:59:30.217Z,417.03
2023-04-15T03:00:30.195Z,420.98
2023-04-15T03:01:30.247Z,421.25
2023-04-15T03:02:30.285Z,418.34
2023-04-15T03:03:30.199Z,421.51
2023-04-15T03:04:30.164Z,422.31
2023-04-15T03:05:30.829Z,422.85
2023-04-15T03:06:30.832Z,420.45
2023-04-15T03:07:30.812Z,423.92
2023-04-15T03:08:30.785Z,422.31
2023-04-15T03:09:30.786Z,422.31
2023-04-15T03:10:30.799Z,421.25
2023-04-15T03:11:30.044Z,423.65
2023-04-15T03:12:30.026Z,421.25
2023-04-15T03:13:30.256Z,425.82
2023-04-15T03:14:30.008Z,426.64
2023-04-15T03:15:30.037Z,423.92
2023-04-15T03:16:29.979Z,429.38
2023-04-15T03:17:29.992Z,427.18
2023-04-15T03:18:30.016Z,427.73
2023-04-15T03:19:29.943Z,427.46
2023-04-15T03:20:29.964Z,428.83
2023-04-15T03:21:29.938Z,428.01
2023-04-15T03:22:29.917Z,428.56
2023-04-15T03:23:29.878Z,429.66
2023-04-15T03:24:29.851Z,432.17
2023-04-15T03:25:30.098Z,431.89
2023-04-15T03:26:29.876Z,431.89
2023-04-15T03:27:29.899Z,428.83
2023-04-15T03:28:30.473Z,429.38
2023-04-15T03:29:29.810Z,432.45
2023-04-15T03:30:30.017Z,432.45
2023-04-15T03:31:29.877Z,433.85
2023-04-15T03:32:30.421Z,429.66
2023-04-15T03:33:29.959Z,430.77
2023-04-15T03:34:29.772Z,429.38
2023-04-15T03:35:29.710Z,428.83
2023-04-15T03:36:29.704Z,431.61
2023-04-15T03:37:29.752Z,428.28
2023-04-15T03:38:29.696Z,428.83
2023-04-15T03:39:30.353Z,433.01
2023-04-15T03:40:29.644Z,429.11
2023-04-15T03:41:29.866Z,427.46
2023-04-15T03:42:29.670Z,428.83
2023-04-15T03:43:29.624Z,428.01
2023-04-15T03:44:29.344Z,428.01
2023-04-15T03:45:29.563Z,428.83
2023-04-15T03:46:29.626Z,429.38
2023-04-15T03:47:29.615Z,429.94
2023-04-15T03:48:29.550Z,429.66
2023-04-15T03:49:29.325Z,429.66
2023-04-15T03:50:29.536Z,427.46
2023-04-15T03:51:29.530Z,427.46
2023-04-15T03:52:28.939Z,428.56
2023-04-15T03:53:29.490Z,427.73
2023-04-15T03:54:29.528Z,427.18
2023-04-15T03:55:29.517Z,428.56
2023-04-15T03:56:29.317Z,427.18
2023-04-15T03:57:29.445Z,427.18
2023-04-15T03:58:29.438Z,427.46
2023-04-15T03:59:29.415Z,427.46
2023-04-15T04:00:29.356Z,426.36
2023-04-15T04:01:29.412Z,427.73
2023-04-15T04:02:29.462Z,427.73
2023-04-15T04:03:29.551Z,424.73
2023-04-15T04:04:29.504Z,429.66
2023-04-15T04:05:30.063Z,425.28
2023-04-15T04:06:29.336Z,427.46
2023-04-15T04:07:29.324Z,427.46
2023-04-15T04:08:28.645Z,426.91
2023-04-15T04:09:29.309Z,428.28
2023-04-15T04:10:29.501Z,423.92
2023-04-15T04:11:29.263Z,424.19
2023-04-15T04:12:29.258Z,420.18
2023-04-15T04:13:29.485Z,420.98
2023-04-15T04:14:29.202Z,420.45
2023-04-15T04:15:29.217Z,418.34
2023-04-15T04:16:29.957Z,419.92
2023-04-15T04:17:29.210Z,418.60
2023-04-15T04:18:28.919Z,419.92
2023-04-15T04:19:29.864Z,417.82
2023-04-15T04:20:29.131Z,418.34
2023-04-15T04:21:29.334Z,417.29
2023-04-15T04:22:29.094Z,417.29
2023-04-15T04:23:29.156Z,417.29
2023-04-15T04:24:29.084Z,418.08
2023-04-15T04:25:29.089Z,417.29
2023-04-15T04:26:29.306Z,416.51
2023-04-15T04:27:29.060Z,418.34
2023-04-15T04:28:29.028Z,415.99
2023-04-15T04:29:29.238Z,415.99
2023-04-15T04:30:28.978Z,416.77
2023-04-15T04:31:29.048Z,414.70
2023-04-15T04:32:29.052Z,416.51
2023-04-15T04:33:29.019Z,416.77
2023-04-15T04:34:29.179Z,416.51
2023-04-15T04:35:28.913Z,415.73
2023-04-15T04:36:28.956Z,414.70
2023-04-15T04:37:29.123Z,414.95
2023-04-15T04:38:28.903Z,414.44
2023-04-15T04:39:28.931Z,414.70
2023-04-15T04:40:28.842Z,414.18
2023-04-15T04:41:28.848Z,412.90
2023-04-15T04:42:29.071Z,409.85
2023-04-15T04:43:28.868Z,408.60
2023-04-15T04:44:28.812Z,407.60
2023-04-15T04:45:28.775Z,405.86
2023-04-15T04:46:28.811Z,403.90
2023-04-15T04:47:28.820Z,403.65
2023-04-15T04:48:28.789Z,402.92
2023-04-15T04:49:28.747Z,400.02
2023-04-15T04:50:28.965Z,400.98
2023-04-15T04:51:28.750Z,399.06
2023-04-15T04:52:28.725Z,401.71
2023-04-15T04:53:28.914Z,402.19
2023-04-15T04:54:28.700Z,402.92
2023-04-15T04:55:28.628Z,401.46
2023-04-15T04:56:28.703Z,400.74
2023-04-15T04:57:28.647Z,400.74
2023-04-15T04:58:28.690Z,400.02
2023-04-15T04:59:28.617Z,399.30
2023-04-15T05:00:28.579Z,399.78
2023-04-15T05:01:28.882Z,398.35
2023-04-15T05:02:29.404Z,398.35
2023-04-15T05:03:28.678Z,397.87
2023-04-15T05:04:28.581Z,393.88
2023-04-15T05:05:28.515Z,394.34
2023-04-15T05:06:28.522Z,393.88
2023-04-15T05:07:28.555Z,393.18
2023-04-15T05:08:28.496Z,391.79
2023-04-15T05:09:28.490Z,389.73
2023-04-15T05:10:28.460Z,389.51
2023-04-15T05:11:28.452Z,387.92
2023-04-15T05:12:28.206Z,388.14
2023-04-15T05:13:28.208Z,384.12
2023-04-15T05:14:28.413Z,374.71
2023-04-15T05:15:28.478Z,373.86
2023-04-15T05:16:28.433Z,373.43
2023-04-15T05:17:28.429Z,372.16
2023-04-15T05:18:28.392Z,371.32
2023-04-15T05:19:28.352Z,370.48
2023-04-15T05:20:28.312Z,369.64
2023-04-15T05:21:28.338Z,368.40
2023-04-15T05:22:28.325Z,366.34
2023-04-15T05:23:28.375Z,366.75
2023-04-15T05:24:28.347Z,365.93
2023-04-15T05:25:28.342Z,365.53
2023-04-15T05:26:28.272Z,363.50
2023-04-15T05:27:28.273Z,363.10
2023-04-15T05:28:28.973Z,361.90
2023-04-15T05:29:28.958Z,361.50
2023-04-15T05:30:28.936Z,359.91
2023-04-15T05:31:28.297Z,358.73
2023-04-15T05:32:28.920Z,356.78
2023-04-15T05:33:28.880Z,356.40
2023-04-15T05:34:28.186Z,356.01
2023-04-15T05:35:28.111Z,355.24
2023-04-15T05:36:28.163Z,351.06
2023-04-15T05:37:28.121Z,348.82
2023-04-15T05:38:28.097Z,349.56
2023-04-15T05:39:28.182Z,346.97
2023-04-15T05:40:28.156Z,346.61
2023-04-15T05:41:28.082Z,346.61
2023-04-15T05:42:28.048Z,345.15
2023-04-15T05:43:28.113Z,344.42
2023-04-15T05:44:28.064Z,342.27
2023-04-15T05:45:27.999Z,344.42
2023-04-15T05:46:28.264Z,342.63
2023-04-15T05:47:28.014Z,341.56
2023-04-15T05:48:27.978Z,342.27
2023-04-15T05:49:27.967Z,338.04
2023-04-15T05:50:27.949Z,339.79
2023-04-15T05:51:27.965Z,338.73
2023-04-15T05:52:27.930Z,340.85
2023-04-15T05:53:27.921Z,336.65
2023-04-15T05:54:28.109Z,332.55
2023-04-15T05:55:27.845Z,337.00
2023-04-15T05:56:28.098Z,331.88
2023-04-15T05:57:27.934Z,331.55
2023-04-15T05:58:27.845Z,331.21
2023-04-15T05:59:27.841Z,327.58
2023-04-15T06:00:27.836Z,327.25
2023-04-15T06:01:27.812Z,325.62
2023-04-15T06:02:27.953Z,325.62
2023-04-15T06:03:27.817Z,322.74
2023-04-15T06:04:27.927Z,319.60
2023-04-15T06:05:27.718Z,315.60
2023-04-15T06:06:27.762Z,315.60
2023-04-15T06:07:27.725Z,315.60
2023-04-15T06:08:27.721Z,311.11
2023-04-15T06:09:27.683Z,307.33
2023-04-15T06:10:27.725Z,305.61
2023-04-15T06:11:27.654Z,306.46
2023-04-15T06:12:27.411Z,301.95
2023-04-15T06:13:27.446Z,298.38
2023-04-15T06:14:27.619Z,295.69
2023-04-15T06:15:27.638Z,294.10
2023-04-15T06:16:27.651Z,294.37
2023-04-15T06:17:28.273Z,289.69
2023-04-15T06:18:27.609Z,287.15
2023-04-15T06:19:27.547Z,287.15
2023-04-15T06:20:27.428Z,284.42
2023-04-15T06:21:29.003Z,285.16
2023-04-15T06:22:27.431Z,282.70
2023-04-15T06:23:28.059Z,280.29
2023-04-15T06:24:27.503Z,280.77
2023-04-15T06:25:27.449Z,278.38
2023-04-15T06:26:27.498Z,276.27
2023-04-15T06:27:28.181Z,276.97
2023-04-15T06:28:28.220Z,275.11
2023-04-15T06:29:27.447Z,274.42
2023-04-15T06:30:28.151Z,273.74
2023-04-15T06:31:27.420Z,274.20
2023-04-15T06:32:27.410Z,273.97
2023-04-15T06:33:27.361Z,274.65
2023-04-15T06:34:27.368Z,277.44
2023-04-15T06:35:27.311Z,277.21
2023-04-15T06:36:27.311Z,279.81
2023-04-15T06:37:27.332Z,280.29
2023-04-15T06:38:27.330Z,283.43
2023-04-15T06:39:27.273Z,285.65
2023-04-15T06:40:27.314Z,291.23
2023-04-15T06:41:26.990Z,293.58
2023-04-15T06:42:27.237Z,294.10
2023-04-15T06:43:27.235Z,294.37
2023-04-15T06:44:27.880Z,296.23
2023-04-15T06:45:27.189Z,301.40
2023-04-15T06:46:27.911Z,303.91
2023-04-15T06:47:27.863Z,307.90
2023-04-15T06:48:27.149Z,313.49
2023-04-15T06:49:27.146Z,309.94
2023-04-15T06:50:27.106Z,311.41
2023-04-15T06:51:27.124Z,313.19
2023-04-15T06:52:27.099Z,311.11
2023-04-15T06:53:27.097Z,309.64
2023-04-15T06:54:27.067Z,312.30
2023-04-15T06:55:27.029Z,312.00
2023-04-15T06:56:27.054Z,314.09
2023-04-15T06:57:27.027Z,312.30
2023-04-15T06:58:27.018Z,313.19
2023-04-15T06:59:27.011Z,312.60
2023-04-15T07:00:26.964Z,315.60
2023-04-15T07:01:27.019Z,316.21
2023-04-15T07:02:27.027Z,321.16
2023-04-15T07:03:26.949Z,326.27
2023-04-15T07:04:26.971Z,331.21
2023-04-15T07:05:26.930Z,337.00
2023-04-15T07:06:27.140Z,343.34
2023-04-15T07:07:26.891Z,353.71
2023-04-15T07:08:26.882Z,358.34
2023-04-15T07:09:26.873Z,367.99
2023-04-15T07:10:27.567Z,372.16
2023-04-15T07:11:26.817Z,378.17
2023-04-15T07:12:26.840Z,383.68
2023-04-15T07:13:26.815Z,388.14
2023-04-15T07:14:26.804Z,396.92
2023-04-15T07:15:26.788Z,401.71
2023-04-15T07:16:28.626Z,405.62
2023-04-15T07:17:26.784Z,414.70
2023-04-15T07:18:26.746Z,422.31
2023-04-15T07:19:26.731Z,436.98
2023-04-15T07:20:26.795Z,436.98
2023-04-15T07:21:26.683Z,443.37
2023-04-15T07:22:26.691Z,451.78
2023-04-15T07:23:26.694Z,463.40
2023-04-15T07:24:26.676Z,469.60
2023-04-15T07:25:26.648Z,475.97
2023-04-15T07:26:26.612Z,484.97
2023-04-15T07:27:26.628Z,499.50
2023-04-15T07:28:26.615Z,506.71
2023-04-15T07:29:27.322Z,519.74
2023-04-15T07:30:27.256Z,525.89
2023-04-15T07:31:26.605Z,528.39
2023-04-15T07:32:26.322Z,541.26
2023-04-15T07:33:26.335Z,543.91
2023-04-15T07:34:26.549Z,558.49
2023-04-15T07:35:26.521Z,564.63
2023-04-15T07:36:26.476Z,572.39
2023-04-15T07:37:26.495Z,577.84
2023-04-15T07:38:26.468Z,589.08
2023-04-15T07:39:26.468Z,592.74
2023-04-15T07:40:26.453Z,598.59
2023-04-15T07:41:26.408Z,606.21
2023-04-15T07:42:26.436Z,608.42
2023-04-15T07:43:26.405Z,616.87
2023-04-15T07:44:27.081Z,621.47
2023-04-15T07:45:26.396Z,627.90
2023-04-15T07:46:27.473Z,629.09
2023-04-15T07:47:26.380Z,635.68
2023-04-15T07:48:27.065Z,641.19
2023-04-15T07:49:27.067Z,642.42
2023-04-15T07:50:27.058Z,646.16
2023-04-15T07:51:26.281Z,651.20
2023-04-15T07:52:27.019Z,658.93
2023-04-15T07:53:26.995Z,666.17
2023-04-15T07:54:26.253Z,668.17
2023-04-15T07:55:27.783Z,684.63
2023-04-15T07:56:26.256Z,688.17
2023-04-15T07:57:26.214Z,693.90
2023-04-15T07:58:26.210Z,698.99
2023-04-15T07:59:26.196Z,707.14
2023-04-15T08:00:26.184Z,706.39
2023-04-15T08:01:26.146Z,710.91
2023-04-15T08:02:26.221Z,707.89
2023-04-15T08:03:26.325Z,711.67
2023-04-15T08:04:26.288Z,720.12
2023-04-15T08:05:26.113Z,732.78
2023-04-15T08:06:26.080Z,740.93
2023-04-15T08:07:26.799Z,748.41
2023-04-15T08:08:26.077Z,751.69
2023-04-15T08:09:26.058Z,757.66
2023-04-15T08:10:26.047Z,768.57
2023-04-15T08:11:26.015Z,778.88
2023-04-15T08:12:26.019Z,789.01
2023-04-15T08:13:26.000Z,789.47
2023-04-15T08:14:25.995Z,799.88
2023-04-15T08:15:25.991Z,828.16
2023-04-15T08:16:25.997Z,820.03
2023-04-15T08:17:27.232Z,834.90
2023-04-15T08:18:25.940Z,844.40
2023-04-15T08:19:25.946Z,859.63
2023-04-15T08:20:25.967Z,863.52
2023-04-15T08:21:25.929Z,883.52
2023-04-15T08:22:25.892Z,878.87
2023-04-15T08:23:26.592Z,884.11
2023-04-15T08:24:25.849Z,893.57
2023-04-15T08:25:25.872Z,894.17
2023-04-15T08:26:25.816Z,898.99
2023-04-15T08:27:25.812Z,898.39
2023-04-15T08:28:25.801Z,914.38
2023-04-15T08:29:25.799Z,921.33
2023-04-15T08:30:25.524Z,920.69
2023-04-15T08:31:25.386Z,925.80
2023-04-15T08:32:25.553Z,930.31
2023-04-15T08:33:25.736Z,940.80
2023-04-15T08:34:25.718Z,940.80
2023-04-15T08:35:25.528Z,946.81
2023-04-15T08:36:25.670Z,950.18
2023-04-15T08:37:25.727Z,950.18
2023-04-15T08:38:25.668Z,936.18
2023-04-15T08:39:25.542Z,938.16
2023-04-15T08:40:25.647Z,950.85
2023-04-15T08:41:25.757Z,957.68
2023-04-15T08:42:25.614Z,969.50
2023-04-15T08:43:25.547Z,960.43
2023-04-15T08:44:25.432Z,961.82
2023-04-15T08:45:25.547Z,959.74
2023-04-15T08:46:25.575Z,960.43
2023-04-15T08:47:25.442Z,959.05
2023-04-15T08:48:26.258Z,964.59
2023-04-15T08:49:26.243Z,968.09
2023-04-15T08:50:26.238Z,944.13
2023-04-15T08:51:25.178Z,964.59
2023-04-15T08:52:25.478Z,955.62
2023-04-15T08:53:25.478Z,950.85
2023-04-15T08:54:25.457Z,954.25
2023-04-15T08:55:25.660Z,959.05
2023-04-15T08:56:25.420Z,973.74
2023-04-15T08:57:25.419Z,998.50
2023-04-15T08:58:25.435Z,998.50
2023-04-15T08:59:25.404Z,1005.27
2023-04-15T09:00:25.387Z,1019.08
2023-04-15T09:01:25.395Z,1017.53
2023-04-15T09:02:25.439Z,1008.31
2023-04-15T09:03:25.441Z,1014.44
2023-04-15T09:04:25.998Z,1026.13
2023-04-15T09:05:25.327Z,1040.53
2023-04-15T09:06:25.270Z,1048.70
2023-04-15T09:07:25.297Z,1056.17
2023-04-15T09:08:25.347Z,1068.85
2023-04-15T09:09:25.266Z,1080.97
2023-04-15T09:10:25.251Z,1086.25
2023-04-15T09:11:25.207Z,1096.06
2023-04-15T09:12:25.213Z,1108.80
2023-04-15T09:13:25.197Z,1110.65
2023-04-15T09:14:25.194Z,1119.97
2023-04-15T09:15:25.198Z,1134.24
2023-04-15T09:16:25.209Z,1142.00
2023-04-15T09:17:25.200Z,1156.85
2023-04-15T09:18:25.137Z,1159.86
2023-04-15T09:19:25.172Z,1170.03
2023-04-15T09:20:25.117Z,1182.46
2023-04-15T09:21:25.081Z,1180.37
2023-04-15T09:22:25.093Z,1183.51
2023-04-15T09:23:25.069Z,1193.03
2023-04-15T09:24:25.054Z,1195.17
2023-04-15T09:25:25.054Z,1229.28
2023-04-15T09:26:25.011Z,1243.02
2023-04-15T09:27:25.015Z,1237.26
2023-04-15T09:28:24.514Z,1245.34
2023-04-15T09:29:24.992Z,1283.65
2023-04-15T09:30:24.989Z,1301.17
2023-04-15T09:31:25.003Z,1299.90
2023-04-15T09:32:25.644Z,1324.41
2023-04-15T09:33:24.933Z,1332.33
2023-04-15T09:34:24.930Z,1336.34
2023-04-15T09:35:24.899Z,1353.95
2023-04-15T09:36:24.874Z,1356.71
2023-04-15T09:37:32.037Z,1390.62
2023-04-15T09:38:25.874Z,1396.44
2023-04-15T09:39:25.574Z,1408.23
2023-04-15T09:40:24.855Z,1433.94
2023-04-15T09:41:24.816Z,1452.67
2023-04-15T09:42:24.846Z,1451.09
2023-04-15T09:43:24.236Z,1491.62
2023-04-15T09:44:24.794Z,1515.32
2023-04-15T09:45:27.145Z,1538.02
2023-04-15T09:46:24.778Z,1593.08
2023-04-15T09:47:24.764Z,1615.24
2023-04-15T09:48:24.724Z,1657.36
2023-04-15T09:49:24.770Z,1661.48
2023-04-15T09:50:24.936Z,1665.63
2023-04-15T09:51:24.421Z,1669.79
2023-04-15T09:52:24.663Z,1688.81
2023-04-15T09:53:24.436Z,1714.84
2023-04-15T09:54:24.665Z,1734.89
2023-04-15T09:55:24.633Z,1790.74
2023-04-15T09:56:24.644Z,1827.52
2023-04-15T09:57:24.629Z,1846.47
2023-04-15T09:58:24.635Z,1860.63
2023-04-15T09:59:24.448Z,1892.28
2023-04-15T10:00:24.582Z,1920.86
2023-04-15T10:01:24.824Z,1893.62
2023-04-15T10:02:24.630Z,1911.24
2023-04-15T10:03:24.672Z,1937.59
2023-04-15T10:04:25.407Z,1957.48
2023-04-15T10:05:24.519Z,1988.09
2023-04-15T10:06:24.507Z,2010.54
2023-04-15T10:07:24.474Z,2038.17
2023-04-15T10:08:24.530Z,2068.16
2023-04-15T10:09:24.458Z,2079.44
2023-04-15T10:10:25.185Z,2077.82
2023-04-15T10:11:24.455Z,2087.57
2023-04-15T10:12:24.392Z,2089.20
2023-04-15T10:13:25.136Z,2090.84
2023-04-15T10:14:25.136Z,2095.76
2023-04-15T10:15:25.105Z,2122.42
2023-04-15T10:16:24.479Z,2170.73
2023-04-15T10:17:24.353Z,2184.94
2023-04-15T10:18:25.078Z,2188.52
2023-04-15T10:19:24.340Z,2186.73
2023-04-15T10:20:24.378Z,2172.50
2023-04-15T10:21:24.321Z,2177.81
2023-04-15T10:22:24.279Z,2221.30
2023-04-15T10:23:24.304Z,2239.93
2023-04-15T10:24:24.274Z,2266.55
2023-04-15T10:25:24.272Z,2266.55
2023-04-15T10:26:24.250Z,2289.88
2023-04-15T10:27:24.215Z,2307.69
2023-04-15T10:28:24.226Z,2299.74
2023-04-15T10:29:24.926Z,2356.57
2023-04-15T10:30:24.226Z,2381.80
2023-04-15T10:31:24.247Z,2418.48
2023-04-15T10:32:24.899Z,2414.10
2023-04-15T10:33:24.450Z,2398.92
2023-04-15T10:34:24.136Z,2407.57
2023-04-15T10:35:24.132Z,2420.67
2023-04-15T10:36:24.135Z,2438.36
2023-04-15T10:37:24.087Z,2431.69
2023-04-15T10:38:24.095Z,2451.79
2023-04-15T10:39:24.311Z,2476.81
2023-04-15T10:40:24.288Z,2514.12
2023-04-15T10:41:24.292Z,2518.87
2023-04-15T10:42:24.017Z,2500.00
2023-04-15T10:43:24.037Z,2486.03
2023-04-15T10:44:24.029Z,2488.35
2023-04-15T10:45:24.005Z,2514.12
2023-04-15T10:46:24.072Z,2552.58
2023-04-15T10:47:24.041Z,2518.87
2023-04-15T10:48:23.970Z,2535.61
2023-04-15T10:49:23.951Z,2511.76
2023-04-15T10:50:23.941Z,2509.40
2023-04-15T10:51:24.172Z,2552.58
2023-04-15T10:52:23.906Z,2528.41
2023-04-15T10:53:23.648Z,2516.49
2023-04-15T10:54:23.645Z,2481.41
2023-04-15T10:55:23.639Z,2460.83
2023-04-15T10:56:24.528Z,2442.82
2023-04-15T10:57:23.847Z,2438.36
2023-04-15T10:58:23.812Z,2427.27
2023-04-15T10:59:23.647Z,2405.41
2023-04-15T11:00:23.805Z,2373.33
2023-04-15T11:01:23.678Z,2420.67
2023-04-15T11:02:23.801Z,2375.45
2023-04-15T11:03:23.827Z,2358.66
2023-04-15T11:04:23.800Z,2333.92
2023-04-15T11:05:23.754Z,2303.71
2023-04-15T11:06:23.726Z,2285.96
2023-04-15T11:07:23.942Z,2262.71
2023-04-15T11:08:23.672Z,2238.05
2023-04-15T11:09:23.680Z,2234.31
2023-04-15T11:10:23.669Z,2215.77
2023-04-15T11:11:23.648Z,2202.97
2023-04-15T11:12:24.359Z,2179.59
2023-04-15T11:13:24.371Z,2160.19
2023-04-15T11:14:23.611Z,2137.71
2023-04-15T11:15:23.600Z,2137.71
2023-04-15T11:16:23.646Z,2102.36
2023-04-15T11:17:23.601Z,2063.37
2023-04-15T11:18:23.539Z,2052.27
2023-04-15T11:19:23.564Z,2047.55
2023-04-15T11:20:23.529Z,2031.96
2023-04-15T11:21:23.745Z,1998.50
2023-04-15T11:22:23.516Z,1995.52
2023-04-15T11:23:23.467Z,1994.03
2023-04-15T11:24:23.479Z,2006.01
2023-04-15T11:25:23.470Z,2012.06
2023-04-15T11:26:23.212Z,2024.26
2023-04-15T11:27:24.124Z,2035.06
2023-04-15T11:28:23.665Z,2035.06
2023-04-15T11:29:23.621Z,2087.57
2023-04-15T11:30:24.067Z,2120.73
2023-04-15T11:31:23.386Z,2132.59
2023-04-15T11:32:23.424Z,2146.30
2023-04-15T11:33:23.340Z,2168.97
2023-04-15T11:34:23.341Z,2197.53
2023-04-15T11:35:23.332Z,2212.10
2023-04-15T11:36:23.307Z,2232.44
2023-04-15T11:37:23.343Z,2253.17
2023-04-15T11:38:23.285Z,2287.92
2023-04-15T11:39:23.266Z,2278.16
2023-04-15T11:40:23.936Z,2291.85
2023-04-15T11:41:23.248Z,2303.71
2023-04-15T11:42:23.229Z,2303.71
2023-04-15T11:43:23.454Z,2327.81
2023-04-15T11:44:23.217Z,2307.69
2023-04-15T11:45:23.190Z,2325.78
2023-04-15T11:46:23.278Z,2338.00
2023-04-15T11:47:23.876Z,2329.84
2023-04-15T11:48:23.836Z,2331.88
2023-04-15T11:49:23.146Z,2362.83
2023-04-15T11:50:23.127Z,2394.62
2023-04-15T11:51:23.111Z,2405.41
2023-04-15T11:52:23.105Z,2420.67
2023-04-15T11:53:23.316Z,2407.57
2023-04-15T11:54:23.081Z,2386.06
2023-04-15T11:55:23.071Z,2383.93
2023-04-15T11:56:23.080Z,2371.23
2023-04-15T11:57:23.026Z,2348.28
2023-04-15T11:58:22.983Z,2289.88
2023-04-15T11:59:24.860Z,2338.00
2023-04-15T12:00:23.655Z,2307.69
2023-04-15T12:01:23.200Z,2313.69
2023-04-15T12:02:23.120Z,2309.69
2023-04-15T12:03:23.145Z,2342.10
2023-04-15T12:04:25.575Z,2362.83
2023-04-15T12:05:23.163Z,2362.83
2023-04-15T12:06:22.361Z,2360.74
2023-04-15T12:07:22.884Z,2386.06
2023-04-15T12:08:22.862Z,2414.10
2023-04-15T12:09:23.531Z,2377.56
2023-04-15T12:10:22.844Z,2405.41
2023-04-15T12:11:22.839Z,2422.87
2023-04-15T12:12:22.846Z,2371.23
2023-04-15T12:13:23.499Z,2350.35
2023-04-15T12:14:22.579Z,2335.96
2023-04-15T12:15:22.786Z,2354.50
2023-04-15T12:16:22.794Z,2356.57
2023-04-15T12:17:22.777Z,2377.56
2023-04-15T12:18:22.718Z,2331.88
2023-04-15T12:19:22.786Z,2354.50
2023-04-15T12:20:23.378Z,2335.96
2023-04-15T12:21:22.708Z,2367.02
2023-04-15T12:22:22.705Z,2360.74